This is the latest recevied weather packets stored in our database for station/object K7JGC-9. If no packets are shown the sender has not sent any weather packets the latest 10 day(s).
| Time | Temp. | Humidity | Pressure | Rain* | Wind** | Luminosity | Snow |
|---|---|---|---|---|---|---|---|
| 1777653799 | 15.56° C | 70% | 1017.6 hPa | 0 mm | - | 100 W/m² | - |
| 1777651996 | 15° C | 73% | 1018 hPa | 0 mm | - | 101 W/m² | - |
| 1777650195 | 13.33° C | 78% | 1018 hPa | 0 mm | - | 57 W/m² | - |
| 1777648394 | 12.78° C | 82% | 1017.9 hPa | 0 mm | - | 36 W/m² | - |
| 1777646589 | 11.67° C | 86% | 1017.7 hPa | 0 mm | - | 31 W/m² | - |
| 1777644786 | 10.56° C | 92% | 1017.3 hPa | 0 mm | - | 23 W/m² | - |
| 1777642985 | 10° C | 93% | 1017 hPa | 0 mm | - | 14 W/m² | - |
| 1777641185 | 10° C | 93% | 1016.7 hPa | 0 mm | - | 5 W/m² | - |
| 1777639384 | 10° C | 92% | 1016.5 hPa | 0 mm | - | 0 W/m² | - |
| 1777637584 | 10° C | 92% | 1016.5 hPa | 0 mm | - | 0 W/m² | - |
| 1777635784 | 10° C | 91% | 1016.4 hPa | 0 mm | - | 0 W/m² | - |
| 1777633982 | 10.56° C | 90% | 1016.5 hPa | 0 mm | - | 0 W/m² | - |
| 1777632176 | 10.56° C | 89% | 1016.2 hPa | 0 mm | - | 0 W/m² | - |
| 1777630376 | 10.56° C | 87% | 1015.9 hPa | 0 mm | - | 0 W/m² | - |
| 1777628574 | 11.11° C | 86% | 1016 hPa | 0 mm | - | 0 W/m² | - |
| 1777626771 | 11.67° C | 84% | 1015.8 hPa | 0 mm | - | 0 W/m² | - |
| 1777624966 | 12.22° C | 83% | 1015.9 hPa | 0 mm | - | 0 W/m² | - |
| 1777623164 | 12.78° C | 81% | 1015.8 hPa | 0 mm | - | 0 W/m² | - |
| 1777621360 | 13.33° C | 78% | 1015.9 hPa | 0 mm | - | 0 W/m² | - |
| 1777619555 | 13.89° C | 76% | 1015.7 hPa | 0 mm | - | 0 W/m² | - |
| 1777617753 | 13.89° C | 73% | 1015.9 hPa | 0 mm | - | 0 W/m² | - |
| 1777615952 | 14.44° C | 68% | 1015.9 hPa | 0 mm | - | 0 W/m² | - |
| 1777614149 | 15° C | 63% | 1015.5 hPa | 0 mm | - | 0 W/m² | - |
| 1777612344 | 15.56° C | 60% | 1015.7 hPa | 0 mm | - | 0 W/m² | - |
| 1777610542 | 16.11° C | 57% | 1015.1 hPa | 0 mm | - | 0 W/m² | - |
* Rain latest hour (hover to see other rain measurements)
** Current wind speed in m/s (hover to see current wind gust speed)